sensor_id;sensor_type;location;lat;lon;timestamp;pressure;altitude;pressure_sealevel;temperature
54746;BMP180;40640;48.130;11.356;2022-10-16T00:02:43;95687.00;;;14.50
54746;BMP180;40640;48.130;11.356;2022-10-16T00:06:49;95687.00;;;14.40
54746;BMP180;40640;48.130;11.356;2022-10-16T00:10:51;95683.00;;;14.40
54746;BMP180;40640;48.130;11.356;2022-10-16T00:14:55;95682.00;;;14.40
54746;BMP180;40640;48.130;11.356;2022-10-16T00:18:58;95680.00;;;14.40
54746;BMP180;40640;48.130;11.356;2022-10-16T00:23:01;95691.00;;;14.40
54746;BMP180;40640;48.130;11.356;2022-10-16T00:27:04;95681.00;;;14.30
54746;BMP180;40640;48.130;11.356;2022-10-16T00:31:10;95677.00;;;14.30
54746;BMP180;40640;48.130;11.356;2022-10-16T00:35:13;95680.00;;;14.20
54746;BMP180;40640;48.130;11.356;2022-10-16T00:39:16;95695.00;;;14.30
54746;BMP180;40640;48.130;11.356;2022-10-16T00:43:35;95691.00;;;14.30
54746;BMP180;40640;48.130;11.356;2022-10-16T00:47:42;95695.00;;;14.20
54746;BMP180;40640;48.130;11.356;2022-10-16T00:51:50;95691.00;;;14.20
54746;BMP180;40640;48.130;11.356;2022-10-16T00:55:53;95697.00;;;14.30
54746;BMP180;40640;48.130;11.356;2022-10-16T00:59:57;95698.00;;;14.20
54746;BMP180;40640;48.130;11.356;2022-10-16T01:04:01;95700.00;;;14.30
54746;BMP180;40640;48.130;11.356;2022-10-16T01:08:08;95705.00;;;14.20
54746;BMP180;40640;48.130;11.356;2022-10-16T01:12:16;95703.00;;;14.20
54746;BMP180;40640;48.130;11.356;2022-10-16T01:16:28;95701.00;;;14.20
54746;BMP180;40640;48.130;11.356;2022-10-16T01:20:37;95714.00;;;14.20
54746;BMP180;40640;48.130;11.356;2022-10-16T01:24:44;95716.00;;;14.20
54746;BMP180;40640;48.130;11.356;2022-10-16T01:28:57;95706.00;;;14.10
54746;BMP180;40640;48.130;11.356;2022-10-16T01:33:03;95707.00;;;14.20
54746;BMP180;40640;48.130;11.356;2022-10-16T01:37:15;95697.00;;;14.10
54746;BMP180;40640;48.130;11.356;2022-10-16T01:41:22;95698.00;;;14.10
54746;BMP180;40640;48.130;11.356;2022-10-16T01:45:29;95695.00;;;14.10
54746;BMP180;40640;48.130;11.356;2022-10-16T01:49:35;95694.00;;;14.00
54746;BMP180;40640;48.130;11.356;2022-10-16T01:53:40;95686.00;;;14.00
54746;BMP180;40640;48.130;11.356;2022-10-16T01:57:46;95689.00;;;14.00
54746;BMP180;40640;48.130;11.356;2022-10-16T02:01:58;95684.00;;;14.00
54746;BMP180;40640;48.130;11.356;2022-10-16T02:06:02;95692.00;;;14.00
54746;BMP180;40640;48.130;11.356;2022-10-16T02:10:05;95695.00;;;13.90
54746;BMP180;40640;48.130;11.356;2022-10-16T02:14:08;95692.00;;;13.90
54746;BMP180;40640;48.130;11.356;2022-10-16T02:18:12;95683.00;;;13.80
54746;BMP180;40640;48.130;11.356;2022-10-16T02:22:18;95676.00;;;13.80
54746;BMP180;40640;48.130;11.356;2022-10-16T02:26:28;95690.00;;;13.80
54746;BMP180;40640;48.130;11.356;2022-10-16T02:30:36;95694.00;;;13.80
54746;BMP180;40640;48.130;11.356;2022-10-16T02:34:41;95699.00;;;13.80
54746;BMP180;40640;48.130;11.356;2022-10-16T02:38:45;95701.00;;;13.80
54746;BMP180;40640;48.130;11.356;2022-10-16T02:42:50;95699.00;;;13.80
54746;BMP180;40640;48.130;11.356;2022-10-16T02:46:53;95695.00;;;13.70
54746;BMP180;40640;48.130;11.356;2022-10-16T02:50:57;95701.00;;;13.70
54746;BMP180;40640;48.130;11.356;2022-10-16T02:55:00;95706.00;;;13.70
54746;BMP180;40640;48.130;11.356;2022-10-16T02:59:03;95704.00;;;13.70
54746;BMP180;40640;48.130;11.356;2022-10-16T03:03:06;95703.00;;;13.70
54746;BMP180;40640;48.130;11.356;2022-10-16T03:07:10;95700.00;;;13.70
54746;BMP180;40640;48.130;11.356;2022-10-16T03:11:13;95696.00;;;13.70
54746;BMP180;40640;48.130;11.356;2022-10-16T03:15:15;95708.00;;;13.60
54746;BMP180;40640;48.130;11.356;2022-10-16T03:19:19;95704.00;;;13.70
54746;BMP180;40640;48.130;11.356;2022-10-16T03:23:23;95702.00;;;13.70
54746;BMP180;40640;48.130;11.356;2022-10-16T03:27:26;95717.00;;;13.70
54746;BMP180;40640;48.130;11.356;2022-10-16T03:31:30;95714.00;;;13.70
54746;BMP180;40640;48.130;11.356;2022-10-16T03:35:32;95717.00;;;13.70
54746;BMP180;40640;48.130;11.356;2022-10-16T03:39:37;95715.00;;;13.70
54746;BMP180;40640;48.130;11.356;2022-10-16T03:43:40;95724.00;;;13.80
54746;BMP180;40640;48.130;11.356;2022-10-16T03:47:43;95706.00;;;13.70
54746;BMP180;40640;48.130;11.356;2022-10-16T03:51:45;95721.00;;;13.80
54746;BMP180;40640;48.130;11.356;2022-10-16T03:55:49;95715.00;;;13.80
54746;BMP180;40640;48.130;11.356;2022-10-16T03:59:52;95705.00;;;13.80
54746;BMP180;40640;48.130;11.356;2022-10-16T04:03:55;95710.00;;;13.80
54746;BMP180;40640;48.130;11.356;2022-10-16T04:07:58;95705.00;;;13.90
54746;BMP180;40640;48.130;11.356;2022-10-16T04:12:02;95703.00;;;13.80
54746;BMP180;40640;48.130;11.356;2022-10-16T04:16:05;95709.00;;;13.90
54746;BMP180;40640;48.130;11.356;2022-10-16T04:20:08;95705.00;;;13.90
54746;BMP180;40640;48.130;11.356;2022-10-16T04:24:11;95710.00;;;13.90
54746;BMP180;40640;48.130;11.356;2022-10-16T04:28:15;95716.00;;;13.90
54746;BMP180;40640;48.130;11.356;2022-10-16T04:32:18;95723.00;;;13.90
54746;BMP180;40640;48.130;11.356;2022-10-16T04:36:20;95735.00;;;13.90
54746;BMP180;40640;48.130;11.356;2022-10-16T04:40:29;95718.00;;;13.90
54746;BMP180;40640;48.130;11.356;2022-10-16T04:44:35;95706.00;;;13.90
54746;BMP180;40640;48.130;11.356;2022-10-16T04:48:38;95694.00;;;13.90
54746;BMP180;40640;48.130;11.356;2022-10-16T04:52:40;95716.00;;;13.90
54746;BMP180;40640;48.130;11.356;2022-10-16T04:56:43;95726.00;;;13.90
54746;BMP180;40640;48.130;11.356;2022-10-16T05:00:50;95722.00;;;13.90
54746;BMP180;40640;48.130;11.356;2022-10-16T05:04:52;95704.00;;;13.90
54746;BMP180;40640;48.130;11.356;2022-10-16T05:08:55;95709.00;;;13.90
54746;BMP180;40640;48.130;11.356;2022-10-16T05:12:58;95715.00;;;13.90
54746;BMP180;40640;48.130;11.356;2022-10-16T05:17:02;95722.00;;;14.00
54746;BMP180;40640;48.130;11.356;2022-10-16T05:21:05;95729.00;;;13.90
54746;BMP180;40640;48.130;11.356;2022-10-16T05:25:08;95726.00;;;14.00
54746;BMP180;40640;48.130;11.356;2022-10-16T05:29:11;95729.00;;;13.90
54746;BMP180;40640;48.130;11.356;2022-10-16T05:33:15;95726.00;;;13.90
54746;BMP180;40640;48.130;11.356;2022-10-16T05:37:17;95734.00;;;13.90
54746;BMP180;40640;48.130;11.356;2022-10-16T05:41:20;95739.00;;;13.90
54746;BMP180;40640;48.130;11.356;2022-10-16T05:45:24;95740.00;;;13.90
54746;BMP180;40640;48.130;11.356;2022-10-16T05:49:28;95743.00;;;13.90
54746;BMP180;40640;48.130;11.356;2022-10-16T05:53:33;95747.00;;;13.90
54746;BMP180;40640;48.130;11.356;2022-10-16T05:57:36;95750.00;;;13.90
54746;BMP180;40640;48.130;11.356;2022-10-16T06:01:40;95748.00;;;13.90
54746;BMP180;40640;48.130;11.356;2022-10-16T06:05:44;95756.00;;;14.00
54746;BMP180;40640;48.130;11.356;2022-10-16T06:09:48;95754.00;;;14.00
54746;BMP180;40640;48.130;11.356;2022-10-16T06:13:51;95766.00;;;14.00
54746;BMP180;40640;48.130;11.356;2022-10-16T06:17:54;95764.00;;;14.00
54746;BMP180;40640;48.130;11.356;2022-10-16T06:21:59;95766.00;;;14.10
54746;BMP180;40640;48.130;11.356;2022-10-16T06:26:05;95778.00;;;14.10
54746;BMP180;40640;48.130;11.356;2022-10-16T06:30:08;95776.00;;;14.10
54746;BMP180;40640;48.130;11.356;2022-10-16T06:34:11;95782.00;;;14.10
54746;BMP180;40640;48.130;11.356;2022-10-16T06:38:15;95792.00;;;14.10
54746;BMP180;40640;48.130;11.356;2022-10-16T06:42:18;95793.00;;;14.10
54746;BMP180;40640;48.130;11.356;2022-10-16T06:46:23;95799.00;;;14.10
54746;BMP180;40640;48.130;11.356;2022-10-16T06:50:25;95800.00;;;14.20
54746;BMP180;40640;48.130;11.356;2022-10-16T06:54:30;95798.00;;;14.20
54746;BMP180;40640;48.130;11.356;2022-10-16T06:58:43;95804.00;;;14.20
54746;BMP180;40640;48.130;11.356;2022-10-16T07:02:46;95819.00;;;14.30
54746;BMP180;40640;48.130;11.356;2022-10-16T07:06:49;95812.00;;;14.20
54746;BMP180;40640;48.130;11.356;2022-10-16T07:10:59;95818.00;;;14.20
54746;BMP180;40640;48.130;11.356;2022-10-16T07:15:02;95828.00;;;14.20
54746;BMP180;40640;48.130;11.356;2022-10-16T07:19:05;95829.00;;;14.20
54746;BMP180;40640;48.130;11.356;2022-10-16T07:23:08;95834.00;;;14.30
54746;BMP180;40640;48.130;11.356;2022-10-16T07:27:12;95836.00;;;14.40
54746;BMP180;40640;48.130;11.356;2022-10-16T07:31:18;95856.00;;;14.40
54746;BMP180;40640;48.130;11.356;2022-10-16T07:35:21;95857.00;;;14.40
54746;BMP180;40640;48.130;11.356;2022-10-16T07:39:24;95863.00;;;14.50
54746;BMP180;40640;48.130;11.356;2022-10-16T07:43:28;95868.00;;;14.60
54746;BMP180;40640;48.130;11.356;2022-10-16T07:47:31;95870.00;;;14.80
54746;BMP180;40640;48.130;11.356;2022-10-16T07:51:34;95877.00;;;14.90
54746;BMP180;40640;48.130;11.356;2022-10-16T07:55:37;95876.00;;;15.00
54746;BMP180;40640;48.130;11.356;2022-10-16T07:59:41;95883.00;;;15.10
54746;BMP180;40640;48.130;11.356;2022-10-16T08:03:45;95877.00;;;15.30
54746;BMP180;40640;48.130;11.356;2022-10-16T08:07:48;95878.00;;;15.40
54746;BMP180;40640;48.130;11.356;2022-10-16T08:11:51;95881.00;;;15.60
54746;BMP180;40640;48.130;11.356;2022-10-16T08:15:55;95885.00;;;15.70
54746;BMP180;40640;48.130;11.356;2022-10-16T08:19:58;95891.00;;;15.80
54746;BMP180;40640;48.130;11.356;2022-10-16T08:24:00;95889.00;;;16.00
54746;BMP180;40640;48.130;11.356;2022-10-16T08:28:04;95902.00;;;16.20
54746;BMP180;40640;48.130;11.356;2022-10-16T08:32:09;95902.00;;;16.30
54746;BMP180;40640;48.130;11.356;2022-10-16T08:36:11;95919.00;;;16.50
54746;BMP180;40640;48.130;11.356;2022-10-16T08:40:18;95918.00;;;16.80
54746;BMP180;40640;48.130;11.356;2022-10-16T08:44:41;95920.00;;;17.50
54746;BMP180;40640;48.130;11.356;2022-10-16T08:48:48;95919.00;;;19.20
54746;BMP180;40640;48.130;11.356;2022-10-16T08:52:51;95921.00;;;21.10
54746;BMP180;40640;48.130;11.356;2022-10-16T08:56:55;95928.00;;;22.80
54746;BMP180;40640;48.130;11.356;2022-10-16T09:01:00;95926.00;;;24.20
54746;BMP180;40640;48.130;11.356;2022-10-16T09:05:44;95937.00;;;25.50
54746;BMP180;40640;48.130;11.356;2022-10-16T09:09:56;95930.00;;;25.50
54746;BMP180;40640;48.130;11.356;2022-10-16T09:14:07;95926.00;;;26.30
54746;BMP180;40640;48.130;11.356;2022-10-16T09:18:20;95943.00;;;27.60
54746;BMP180;40640;48.130;11.356;2022-10-16T09:22:34;95946.00;;;28.60
54746;BMP180;40640;48.130;11.356;2022-10-16T09:26:37;95945.00;;;29.00
54746;BMP180;40640;48.130;11.356;2022-10-16T09:30:40;95951.00;;;29.40
54746;BMP180;40640;48.130;11.356;2022-10-16T09:34:45;95954.00;;;29.90
54746;BMP180;40640;48.130;11.356;2022-10-16T09:39:02;95958.00;;;30.40
54746;BMP180;40640;48.130;11.356;2022-10-16T09:43:20;95964.00;;;31.60
54746;BMP180;40640;48.130;11.356;2022-10-16T09:47:25;95970.00;;;31.10
54746;BMP180;40640;48.130;11.356;2022-10-16T09:51:30;95971.00;;;31.30
54746;BMP180;40640;48.130;11.356;2022-10-16T09:55:35;95980.00;;;32.30
54746;BMP180;40640;48.130;11.356;2022-10-16T09:59:45;95978.00;;;33.50
54746;BMP180;40640;48.130;11.356;2022-10-16T10:03:49;95982.00;;;34.10
54746;BMP180;40640;48.130;11.356;2022-10-16T10:07:55;95987.00;;;34.00
54746;BMP180;40640;48.130;11.356;2022-10-16T10:12:01;95989.00;;;34.80
54746;BMP180;40640;48.130;11.356;2022-10-16T10:16:09;95994.00;;;34.70
54746;BMP180;40640;48.130;11.356;2022-10-16T10:20:21;95992.00;;;35.40
54746;BMP180;40640;48.130;11.356;2022-10-16T10:24:25;95996.00;;;36.30
54746;BMP180;40640;48.130;11.356;2022-10-16T10:28:42;96004.00;;;36.50
54746;BMP180;40640;48.130;11.356;2022-10-16T10:32:55;95996.00;;;37.50
54746;BMP180;40640;48.130;11.356;2022-10-16T10:37:04;95989.00;;;38.50
54746;BMP180;40640;48.130;11.356;2022-10-16T10:41:27;95996.00;;;39.10
54746;BMP180;40640;48.130;11.356;2022-10-16T10:45:42;95997.00;;;38.30
54746;BMP180;40640;48.130;11.356;2022-10-16T10:49:54;96000.00;;;37.00
54746;BMP180;40640;48.130;11.356;2022-10-16T10:54:09;96011.00;;;36.50
54746;BMP180;40640;48.130;11.356;2022-10-16T11:02:44;96009.00;;;38.00
54746;BMP180;40640;48.130;11.356;2022-10-16T11:06:50;95997.00;;;38.70
54746;BMP180;40640;48.130;11.356;2022-10-16T11:10:58;95999.00;;;39.40
54746;BMP180;40640;48.130;11.356;2022-10-16T11:15:07;96005.00;;;40.40
54746;BMP180;40640;48.130;11.356;2022-10-16T11:19:28;96007.00;;;40.80
54746;BMP180;40640;48.130;11.356;2022-10-16T11:23:38;96005.00;;;40.40
54746;BMP180;40640;48.130;11.356;2022-10-16T11:27:50;96013.00;;;40.50
54746;BMP180;40640;48.130;11.356;2022-10-16T11:31:58;95997.00;;;41.30
54746;BMP180;40640;48.130;11.356;2022-10-16T11:36:10;96002.00;;;41.70
54746;BMP180;40640;48.130;11.356;2022-10-16T11:40:20;95994.00;;;42.00
54746;BMP180;40640;48.130;11.356;2022-10-16T11:44:34;96003.00;;;41.70
54746;BMP180;40640;48.130;11.356;2022-10-16T11:48:41;96007.00;;;41.70
54746;BMP180;40640;48.130;11.356;2022-10-16T11:52:53;96013.00;;;41.30
54746;BMP180;40640;48.130;11.356;2022-10-16T11:57:08;96018.00;;;39.50
54746;BMP180;40640;48.130;11.356;2022-10-16T12:01:18;96016.00;;;39.30
54746;BMP180;40640;48.130;11.356;2022-10-16T12:05:27;96024.00;;;38.90
54746;BMP180;40640;48.130;11.356;2022-10-16T12:09:36;96017.00;;;38.80
54746;BMP180;40640;48.130;11.356;2022-10-16T12:13:41;96021.00;;;38.70
54746;BMP180;40640;48.130;11.356;2022-10-16T12:17:44;96021.00;;;38.90
54746;BMP180;40640;48.130;11.356;2022-10-16T12:21:47;96019.00;;;39.20
54746;BMP180;40640;48.130;11.356;2022-10-16T12:25:56;96020.00;;;39.70
54746;BMP180;40640;48.130;11.356;2022-10-16T12:30:01;96018.00;;;39.20
54746;BMP180;40640;48.130;11.356;2022-10-16T12:34:04;96020.00;;;39.40
54746;BMP180;40640;48.130;11.356;2022-10-16T12:38:13;96016.00;;;39.80
54746;BMP180;40640;48.130;11.356;2022-10-16T12:42:34;96011.00;;;39.80
54746;BMP180;40640;48.130;11.356;2022-10-16T12:46:38;96014.00;;;39.50
54746;BMP180;40640;48.130;11.356;2022-10-16T12:50:42;96006.00;;;39.40
54746;BMP180;40640;48.130;11.356;2022-10-16T12:54:45;96002.00;;;39.50
54746;BMP180;40640;48.130;11.356;2022-10-16T12:59:01;96002.00;;;39.70
54746;BMP180;40640;48.130;11.356;2022-10-16T13:03:23;96002.00;;;39.70
54746;BMP180;40640;48.130;11.356;2022-10-16T13:07:43;96005.00;;;38.90
54746;BMP180;40640;48.130;11.356;2022-10-16T13:11:56;96012.00;;;38.00
54746;BMP180;40640;48.130;11.356;2022-10-16T13:16:06;96027.00;;;37.30
54746;BMP180;40640;48.130;11.356;2022-10-16T13:20:16;96021.00;;;36.80
54746;BMP180;40640;48.130;11.356;2022-10-16T13:24:33;96028.00;;;36.80
54746;BMP180;40640;48.130;11.356;2022-10-16T13:28:40;96024.00;;;36.80
54746;BMP180;40640;48.130;11.356;2022-10-16T13:32:46;96021.00;;;36.70
54746;BMP180;40640;48.130;11.356;2022-10-16T13:36:51;96032.00;;;36.50
54746;BMP180;40640;48.130;11.356;2022-10-16T13:40:55;96024.00;;;35.60
54746;BMP180;40640;48.130;11.356;2022-10-16T13:44:58;96034.00;;;35.40
54746;BMP180;40640;48.130;11.356;2022-10-16T13:49:04;96033.00;;;35.20
54746;BMP180;40640;48.130;11.356;2022-10-16T13:53:13;96042.00;;;34.80
54746;BMP180;40640;48.130;11.356;2022-10-16T13:57:17;96044.00;;;34.30
54746;BMP180;40640;48.130;11.356;2022-10-16T14:01:29;96048.00;;;33.90
54746;BMP180;40640;48.130;11.356;2022-10-16T14:05:35;96050.00;;;33.50
54746;BMP180;40640;48.130;11.356;2022-10-16T14:09:38;96051.00;;;33.10
54746;BMP180;40640;48.130;11.356;2022-10-16T14:13:44;96042.00;;;32.80
54746;BMP180;40640;48.130;11.356;2022-10-16T14:17:50;96046.00;;;32.40
54746;BMP180;40640;48.130;11.356;2022-10-16T14:21:55;96053.00;;;32.10
54746;BMP180;40640;48.130;11.356;2022-10-16T14:26:17;96050.00;;;31.60
54746;BMP180;40640;48.130;11.356;2022-10-16T14:30:22;96047.00;;;31.10
54746;BMP180;40640;48.130;11.356;2022-10-16T14:34:30;96045.00;;;30.70
54746;BMP180;40640;48.130;11.356;2022-10-16T14:38:36;96044.00;;;30.30
54746;BMP180;40640;48.130;11.356;2022-10-16T14:42:43;96053.00;;;29.80
54746;BMP180;40640;48.130;11.356;2022-10-16T14:46:46;96048.00;;;29.40
54746;BMP180;40640;48.130;11.356;2022-10-16T14:50:49;96047.00;;;29.00
54746;BMP180;40640;48.130;11.356;2022-10-16T14:54:53;96047.00;;;28.70
54746;BMP180;40640;48.130;11.356;2022-10-16T14:58:58;96049.00;;;28.40
54746;BMP180;40640;48.130;11.356;2022-10-16T15:03:00;96053.00;;;28.10
54746;BMP180;40640;48.130;11.356;2022-10-16T15:07:03;96055.00;;;27.90
54746;BMP180;40640;48.130;11.356;2022-10-16T15:11:10;96054.00;;;27.60
54746;BMP180;40640;48.130;11.356;2022-10-16T15:15:30;96060.00;;;27.40
54746;BMP180;40640;48.130;11.356;2022-10-16T15:19:35;96055.00;;;27.20
54746;BMP180;40640;48.130;11.356;2022-10-16T15:23:37;96060.00;;;27.00
54746;BMP180;40640;48.130;11.356;2022-10-16T15:27:42;96059.00;;;26.90
54746;BMP180;40640;48.130;11.356;2022-10-16T15:31:45;96065.00;;;26.70
54746;BMP180;40640;48.130;11.356;2022-10-16T15:35:50;96066.00;;;26.50
54746;BMP180;40640;48.130;11.356;2022-10-16T15:39:53;96069.00;;;26.30
54746;BMP180;40640;48.130;11.356;2022-10-16T15:43:57;96067.00;;;26.10
54746;BMP180;40640;48.130;11.356;2022-10-16T15:48:00;96071.00;;;25.90
54746;BMP180;40640;48.130;11.356;2022-10-16T15:52:03;96080.00;;;25.70
54746;BMP180;40640;48.130;11.356;2022-10-16T15:56:07;96083.00;;;25.60
54746;BMP180;40640;48.130;11.356;2022-10-16T16:00:16;96080.00;;;25.40
54746;BMP180;40640;48.130;11.356;2022-10-16T16:04:19;96078.00;;;25.20
54746;BMP180;40640;48.130;11.356;2022-10-16T16:08:42;96090.00;;;25.00
54746;BMP180;40640;48.130;11.356;2022-10-16T16:12:46;96085.00;;;24.80
54746;BMP180;40640;48.130;11.356;2022-10-16T16:16:54;96085.00;;;24.50
54746;BMP180;40640;48.130;11.356;2022-10-16T16:20:57;96087.00;;;24.40
54746;BMP180;40640;48.130;11.356;2022-10-16T16:24:59;96093.00;;;24.20
54746;BMP180;40640;48.130;11.356;2022-10-16T16:29:03;96092.00;;;24.00
54746;BMP180;40640;48.130;11.356;2022-10-16T16:33:07;96096.00;;;23.80
54746;BMP180;40640;48.130;11.356;2022-10-16T16:37:10;96105.00;;;23.70
54746;BMP180;40640;48.130;11.356;2022-10-16T16:41:13;96107.00;;;23.50
54746;BMP180;40640;48.130;11.356;2022-10-16T16:45:16;96115.00;;;23.40
54746;BMP180;40640;48.130;11.356;2022-10-16T16:49:21;96108.00;;;23.20
54746;BMP180;40640;48.130;11.356;2022-10-16T16:53:24;96113.00;;;23.10
54746;BMP180;40640;48.130;11.356;2022-10-16T16:57:26;96118.00;;;23.00
54746;BMP180;40640;48.130;11.356;2022-10-16T17:01:30;96118.00;;;22.80
54746;BMP180;40640;48.130;11.356;2022-10-16T17:05:34;96136.00;;;22.60
54746;BMP180;40640;48.130;11.356;2022-10-16T17:09:37;96136.00;;;22.40
54746;BMP180;40640;48.130;11.356;2022-10-16T17:13:40;96145.00;;;22.30
54746;BMP180;40640;48.130;11.356;2022-10-16T17:17:42;96147.00;;;22.30
54746;BMP180;40640;48.130;11.356;2022-10-16T17:21:49;96157.00;;;22.20
54746;BMP180;40640;48.130;11.356;2022-10-16T17:25:52;96156.00;;;22.10
54746;BMP180;40640;48.130;11.356;2022-10-16T17:29:54;96159.00;;;22.00
54746;BMP180;40640;48.130;11.356;2022-10-16T17:33:58;96162.00;;;21.90
54746;BMP180;40640;48.130;11.356;2022-10-16T17:38:02;96170.00;;;21.70
54746;BMP180;40640;48.130;11.356;2022-10-16T17:42:05;96170.00;;;21.60
54746;BMP180;40640;48.130;11.356;2022-10-16T17:46:09;96173.00;;;21.50
54746;BMP180;40640;48.130;11.356;2022-10-16T17:50:12;96179.00;;;21.40
54746;BMP180;40640;48.130;11.356;2022-10-16T17:54:18;96181.00;;;21.20
54746;BMP180;40640;48.130;11.356;2022-10-16T17:58:21;96189.00;;;21.00
54746;BMP180;40640;48.130;11.356;2022-10-16T18:02:24;96192.00;;;20.90
54746;BMP180;40640;48.130;11.356;2022-10-16T18:06:27;96195.00;;;20.80
54746;BMP180;40640;48.130;11.356;2022-10-16T18:10:32;96190.00;;;20.70
54746;BMP180;40640;48.130;11.356;2022-10-16T18:14:34;96203.00;;;20.60
54746;BMP180;40640;48.130;11.356;2022-10-16T18:18:38;96195.00;;;20.60
54746;BMP180;40640;48.130;11.356;2022-10-16T18:22:41;96204.00;;;20.50
54746;BMP180;40640;48.130;11.356;2022-10-16T18:26:47;96201.00;;;20.50
54746;BMP180;40640;48.130;11.356;2022-10-16T18:30:54;96201.00;;;20.30
54746;BMP180;40640;48.130;11.356;2022-10-16T18:34:57;96202.00;;;20.20
54746;BMP180;40640;48.130;11.356;2022-10-16T18:39:02;96205.00;;;20.20
54746;BMP180;40640;48.130;11.356;2022-10-16T18:43:11;96206.00;;;20.10
54746;BMP180;40640;48.130;11.356;2022-10-16T18:47:14;96213.00;;;20.10
54746;BMP180;40640;48.130;11.356;2022-10-16T18:51:18;96208.00;;;20.00
54746;BMP180;40640;48.130;11.356;2022-10-16T18:55:21;96202.00;;;19.90
54746;BMP180;40640;48.130;11.356;2022-10-16T18:59:32;96206.00;;;19.80
54746;BMP180;40640;48.130;11.356;2022-10-16T19:03:35;96204.00;;;19.70
54746;BMP180;40640;48.130;11.356;2022-10-16T19:07:39;96206.00;;;19.60
54746;BMP180;40640;48.130;11.356;2022-10-16T19:11:43;96216.00;;;19.50
54746;BMP180;40640;48.130;11.356;2022-10-16T19:15:48;96222.00;;;19.50
54746;BMP180;40640;48.130;11.356;2022-10-16T19:19:59;96231.00;;;19.40
54746;BMP180;40640;48.130;11.356;2022-10-16T19:24:02;96236.00;;;19.40
54746;BMP180;40640;48.130;11.356;2022-10-16T19:28:05;96222.00;;;19.30
54746;BMP180;40640;48.130;11.356;2022-10-16T19:32:10;96229.00;;;19.20
54746;BMP180;40640;48.130;11.356;2022-10-16T19:36:14;96228.00;;;19.10
54746;BMP180;40640;48.130;11.356;2022-10-16T19:40:17;96237.00;;;19.10
54746;BMP180;40640;48.130;11.356;2022-10-16T19:44:20;96248.00;;;18.90
54746;BMP180;40640;48.130;11.356;2022-10-16T19:48:24;96242.00;;;18.90
54746;BMP180;40640;48.130;11.356;2022-10-16T19:52:27;96246.00;;;18.80
54746;BMP180;40640;48.130;11.356;2022-10-16T19:56:31;96248.00;;;18.70
54746;BMP180;40640;48.130;11.356;2022-10-16T20:00:34;96244.00;;;18.60
54746;BMP180;40640;48.130;11.356;2022-10-16T20:04:38;96246.00;;;18.50
54746;BMP180;40640;48.130;11.356;2022-10-16T20:08:42;96255.00;;;18.50
54746;BMP180;40640;48.130;11.356;2022-10-16T20:12:46;96254.00;;;18.50
54746;BMP180;40640;48.130;11.356;2022-10-16T20:16:48;96248.00;;;18.40
54746;BMP180;40640;48.130;11.356;2022-10-16T20:20:55;96258.00;;;18.30
54746;BMP180;40640;48.130;11.356;2022-10-16T20:24:57;96264.00;;;18.30
54746;BMP180;40640;48.130;11.356;2022-10-16T20:29:00;96260.00;;;18.20
54746;BMP180;40640;48.130;11.356;2022-10-16T20:33:04;96270.00;;;18.20
54746;BMP180;40640;48.130;11.356;2022-10-16T20:37:10;96266.00;;;18.10
54746;BMP180;40640;48.130;11.356;2022-10-16T20:41:13;96273.00;;;18.00
54746;BMP180;40640;48.130;11.356;2022-10-16T20:45:16;96277.00;;;17.90
54746;BMP180;40640;48.130;11.356;2022-10-16T20:49:18;96285.00;;;17.90
54746;BMP180;40640;48.130;11.356;2022-10-16T20:53:41;96275.00;;;17.80
54746;BMP180;40640;48.130;11.356;2022-10-16T20:57:44;96278.00;;;17.80
54746;BMP180;40640;48.130;11.356;2022-10-16T21:01:47;96276.00;;;17.80
54746;BMP180;40640;48.130;11.356;2022-10-16T21:05:50;96271.00;;;17.70
54746;BMP180;40640;48.130;11.356;2022-10-16T21:09:59;96281.00;;;17.70
54746;BMP180;40640;48.130;11.356;2022-10-16T21:14:03;96278.00;;;17.70
54746;BMP180;40640;48.130;11.356;2022-10-16T21:18:06;96275.00;;;17.60
54746;BMP180;40640;48.130;11.356;2022-10-16T21:22:10;96277.00;;;17.60
54746;BMP180;40640;48.130;11.356;2022-10-16T21:26:14;96270.00;;;17.50
54746;BMP180;40640;48.130;11.356;2022-10-16T21:30:18;96277.00;;;17.50
54746;BMP180;40640;48.130;11.356;2022-10-16T21:34:21;96277.00;;;17.40
54746;BMP180;40640;48.130;11.356;2022-10-16T21:38:24;96283.00;;;17.40
54746;BMP180;40640;48.130;11.356;2022-10-16T21:42:28;96280.00;;;17.40
54746;BMP180;40640;48.130;11.356;2022-10-16T21:46:33;96284.00;;;17.30
54746;BMP180;40640;48.130;11.356;2022-10-16T21:50:36;96286.00;;;17.20
54746;BMP180;40640;48.130;11.356;2022-10-16T21:54:39;96276.00;;;17.20
54746;BMP180;40640;48.130;11.356;2022-10-16T21:58:44;96277.00;;;17.10
54746;BMP180;40640;48.130;11.356;2022-10-16T22:02:47;96281.00;;;17.00
54746;BMP180;40640;48.130;11.356;2022-10-16T22:06:49;96280.00;;;17.00
54746;BMP180;40640;48.130;11.356;2022-10-16T22:10:52;96274.00;;;17.00
54746;BMP180;40640;48.130;11.356;2022-10-16T22:14:56;96255.00;;;16.80
54746;BMP180;40640;48.130;11.356;2022-10-16T22:18:59;96274.00;;;16.50
54746;BMP180;40640;48.130;11.356;2022-10-16T22:23:03;96273.00;;;16.40
54746;BMP180;40640;48.130;11.356;2022-10-16T22:27:06;96274.00;;;16.40
54746;BMP180;40640;48.130;11.356;2022-10-16T22:31:12;96276.00;;;16.40
54746;BMP180;40640;48.130;11.356;2022-10-16T22:35:15;96274.00;;;16.40
54746;BMP180;40640;48.130;11.356;2022-10-16T22:39:18;96277.00;;;16.40
54746;BMP180;40640;48.130;11.356;2022-10-16T22:43:21;96276.00;;;16.40
54746;BMP180;40640;48.130;11.356;2022-10-16T22:47:25;96276.00;;;16.20
54746;BMP180;40640;48.130;11.356;2022-10-16T22:51:28;96281.00;;;16.10
54746;BMP180;40640;48.130;11.356;2022-10-16T22:55:31;96291.00;;;16.10
54746;BMP180;40640;48.130;11.356;2022-10-16T22:59:34;96290.00;;;16.10
54746;BMP180;40640;48.130;11.356;2022-10-16T23:03:38;96280.00;;;16.00
54746;BMP180;40640;48.130;11.356;2022-10-16T23:07:40;96287.00;;;16.10
54746;BMP180;40640;48.130;11.356;2022-10-16T23:11:45;96282.00;;;16.00
54746;BMP180;40640;48.130;11.356;2022-10-16T23:15:47;96282.00;;;16.00
54746;BMP180;40640;48.130;11.356;2022-10-16T23:19:51;96277.00;;;16.00